createdAt,value
2022-12-23T00:00:44.132Z,100935.31
2022-12-23T00:03:11.733Z,100925.84
2022-12-23T00:05:39.774Z,100912.97
2022-12-23T00:08:07.352Z,100906.03
2022-12-23T00:10:37.783Z,100922.13
2022-12-23T00:13:23.835Z,100914.78
2022-12-23T00:15:51.261Z,100917.28
2022-12-23T00:18:18.739Z,100896.59
2022-12-23T00:20:46.547Z,100903.59
2022-12-23T00:23:14.221Z,100888.47
2022-12-23T00:25:42.461Z,100891.00
2022-12-23T00:28:11.795Z,100892.03
2022-12-23T00:30:49.230Z,100897.78
2022-12-23T00:33:17.284Z,100893.50
2022-12-23T00:35:45.392Z,100880.44
2022-12-23T00:38:12.853Z,100886.94
2022-12-23T00:40:58.854Z,100897.69
2022-12-23T00:43:26.284Z,100873.84
2022-12-23T00:45:54.088Z,100892.03
2022-12-23T00:48:40.031Z,100866.09
2022-12-23T00:51:07.607Z,100869.69
2022-12-23T00:53:34.941Z,100878.34
2022-12-23T00:56:02.311Z,100862.69
2022-12-23T00:58:32.054Z,100862.63
2022-12-23T01:01:18.231Z,100856.59
2022-12-23T01:04:04.463Z,100864.66
2022-12-23T01:06:32.197Z,100864.28
2022-12-23T01:08:59.638Z,100855.56
2022-12-23T01:11:27.417Z,100855.72
2022-12-23T01:13:55.094Z,100859.56
2022-12-23T01:16:22.688Z,100854.03
2022-12-23T01:18:50.127Z,100853.84
2022-12-23T01:21:17.424Z,100847.72
2022-12-23T01:23:44.763Z,100845.34
2022-12-23T01:26:12.233Z,100842.22
2022-12-23T01:28:39.593Z,100845.38
2022-12-23T01:31:07.585Z,100848.13
2022-12-23T01:33:36.707Z,100854.06
2022-12-23T01:36:05.364Z,100848.97
2022-12-23T01:38:33.061Z,100834.66
2022-12-23T01:41:00.455Z,100838.22
2022-12-23T01:43:46.782Z,100841.41
2022-12-23T01:46:17.482Z,100835.28
2022-12-23T01:48:45.651Z,100823.66
2022-12-23T01:51:16.851Z,100827.25
2022-12-23T01:53:48.958Z,100836.72
2022-12-23T01:56:24.190Z,100821.13
2022-12-23T01:59:32.475Z,100826.69
2022-12-23T02:02:18.848Z,100835.50
2022-12-23T02:04:46.616Z,100809.53
2022-12-23T02:07:32.596Z,100830.97
2022-12-23T02:09:59.965Z,100825.34
2022-12-23T02:12:46.468Z,100832.75
2022-12-23T02:15:47.702Z,100805.53
2022-12-23T02:18:15.131Z,100814.22
2022-12-23T02:20:45.316Z,100812.31
2022-12-23T02:23:25.266Z,100805.53
2022-12-23T02:25:58.651Z,100803.84
2022-12-23T02:28:26.210Z,100812.09
2022-12-23T02:30:57.185Z,100817.97
2022-12-23T02:33:24.592Z,100803.38
2022-12-23T02:35:53.043Z,100815.41
2022-12-23T02:38:20.443Z,100797.72
2022-12-23T02:40:54.470Z,100802.75
2022-12-23T02:43:24.678Z,100799.19
2022-12-23T02:45:57.332Z,100801.25
2022-12-23T02:48:31.099Z,100811.44
2022-12-23T02:50:58.626Z,100804.69
2022-12-23T02:53:28.200Z,100790.50
2022-12-23T02:55:56.223Z,100806.75
2022-12-23T02:58:25.201Z,100805.09
2022-12-23T03:00:52.508Z,100810.38
2022-12-23T03:03:22.425Z,100817.28
2022-12-23T03:05:49.984Z,100812.91
2022-12-23T03:08:19.148Z,100808.88
2022-12-23T03:10:55.891Z,100804.63
2022-12-23T03:13:41.785Z,100808.84
2022-12-23T03:16:15.851Z,100808.25
2022-12-23T03:19:15.748Z,100808.66
2022-12-23T03:21:58.787Z,100805.31
2022-12-23T03:24:26.227Z,100816.94
2022-12-23T03:26:53.823Z,100798.13
2022-12-23T03:29:26.433Z,100806.16
2022-12-23T03:31:53.846Z,100819.84
2022-12-23T03:34:22.745Z,100794.09
2022-12-23T03:36:53.886Z,100803.34
2022-12-23T03:39:21.988Z,100798.75
2022-12-23T03:41:52.553Z,100799.00
2022-12-23T03:44:25.482Z,100798.56
2022-12-23T03:46:55.205Z,100784.59
2022-12-23T03:49:24.100Z,100802.09
2022-12-23T03:51:59.884Z,100802.56
2022-12-23T03:54:28.580Z,100798.31
2022-12-23T03:57:02.840Z,100781.63
2022-12-23T03:59:37.982Z,100793.50
2022-12-23T04:02:08.607Z,100777.63
2022-12-23T04:04:55.362Z,100786.31
2022-12-23T04:07:24.155Z,100791.38
2022-12-23T04:09:52.139Z,100791.63
2022-12-23T04:12:20.874Z,100794.59
2022-12-23T04:14:48.544Z,100780.25
2022-12-23T04:17:16.197Z,100775.34
2022-12-23T04:19:45.545Z,100785.28
2022-12-23T04:22:13.796Z,100781.28
2022-12-23T04:24:41.492Z,100779.59
2022-12-23T04:27:15.354Z,100789.75
2022-12-23T04:29:43.156Z,100782.56
2022-12-23T04:32:11.021Z,100784.25
2022-12-23T04:34:39.075Z,100771.97
2022-12-23T04:37:06.785Z,100777.72
2022-12-23T04:39:34.450Z,100773.69
2022-12-23T04:42:02.053Z,100763.78
2022-12-23T04:44:29.872Z,100775.59
2022-12-23T04:46:57.294Z,100780.25
2022-12-23T04:49:24.901Z,100777.72
2022-12-23T04:51:52.489Z,100762.72
2022-12-23T04:54:19.795Z,100784.69
2022-12-23T04:56:47.345Z,100781.13
2022-12-23T04:59:15.023Z,100821.47
2022-12-23T05:01:44.142Z,100776.44
2022-12-23T05:04:11.724Z,100778.19
2022-12-23T05:06:39.535Z,100783.03
2022-12-23T05:09:06.884Z,100784.31
2022-12-23T05:11:40.193Z,100779.22
2022-12-23T05:14:10.137Z,100775.19
2022-12-23T05:16:37.882Z,100765.69
2022-12-23T05:19:07.256Z,100780.69
2022-12-23T05:21:35.165Z,100788.31
2022-12-23T05:24:02.977Z,100783.44
2022-12-23T05:26:30.712Z,100786.63
2022-12-23T05:28:58.076Z,100801.84
2022-12-23T05:31:26.931Z,100810.72
2022-12-23T05:33:54.523Z,100817.91
2022-12-23T05:36:22.952Z,100808.19
2022-12-23T05:38:50.313Z,100804.41
2022-12-23T05:41:19.289Z,100809.47
2022-12-23T05:43:48.413Z,100808.63
2022-12-23T05:46:50.561Z,100808.19
2022-12-23T05:49:19.423Z,100807.78
2022-12-23T05:51:46.736Z,100798.66
2022-12-23T05:54:14.217Z,100809.25
2022-12-23T05:56:41.707Z,100803.97
2022-12-23T05:59:09.228Z,100811.78
2022-12-23T06:01:37.278Z,100795.50
2022-12-23T06:04:16.948Z,100803.78
2022-12-23T06:06:44.527Z,100815.59
2022-12-23T06:09:13.474Z,100806.91
2022-12-23T06:11:43.846Z,100816.63
2022-12-23T06:14:11.582Z,100810.31
2022-12-23T06:16:40.069Z,100819.00
2022-12-23T06:19:09.027Z,100801.84
2022-12-23T06:21:36.824Z,100807.16
2022-12-23T06:24:06.754Z,100812.41
2022-12-23T06:26:36.242Z,100831.66
2022-12-23T06:29:05.850Z,100806.06
2022-12-23T06:31:34.120Z,100827.03
2022-12-23T06:34:02.245Z,100805.88
2022-12-23T06:36:29.969Z,100809.47
2022-12-23T06:38:57.990Z,100809.91
2022-12-23T06:41:25.782Z,100820.03
2022-12-23T06:43:54.596Z,100824.47
2022-12-23T06:46:22.627Z,100812.84
2022-12-23T06:48:53.699Z,100802.06
2022-12-23T06:51:22.474Z,100811.19
2022-12-23T06:53:50.206Z,100805.25
2022-12-23T06:56:18.933Z,100799.94
2022-12-23T06:58:46.642Z,100807.38
2022-12-23T07:01:15.431Z,100809.06
2022-12-23T07:03:43.180Z,100808.88
2022-12-23T07:06:15.388Z,100801.66
2022-12-23T07:08:43.170Z,100801.66
2022-12-23T07:11:15.222Z,100826.00
2022-12-23T07:13:52.522Z,100815.63
2022-12-23T07:16:20.052Z,100802.72
2022-12-23T07:18:47.887Z,100818.59
2022-12-23T07:21:24.633Z,100809.91
2022-12-23T07:23:56.391Z,100802.91
2022-12-23T07:26:24.180Z,100828.09
2022-12-23T07:28:51.976Z,100824.72
2022-12-23T07:31:20.061Z,100817.94
2022-12-23T07:33:56.140Z,100824.09
2022-12-23T07:36:24.651Z,100831.06
2022-12-23T07:38:52.880Z,100827.47
2022-12-23T07:41:22.762Z,100825.34
2022-12-23T07:43:50.766Z,100816.25
2022-12-23T07:46:21.703Z,100813.91
2022-12-23T07:48:52.990Z,100813.06
2022-12-23T07:51:23.129Z,100821.72
2022-12-23T07:53:51.949Z,100803.97
2022-12-23T07:56:21.676Z,100795.09
2022-12-23T07:58:52.763Z,100797.19
2022-12-23T08:01:25.668Z,100800.31
2022-12-23T08:10:13.053Z,100797.16
2022-12-23T08:19:37.566Z,100791.66
2022-12-23T08:22:23.236Z,100787.38
2022-12-23T08:25:34.368Z,100767.91
2022-12-23T08:30:51.560Z,100794.81
2022-12-23T08:33:26.521Z,100781.66
2022-12-23T08:36:41.824Z,100792.28
2022-12-23T08:39:10.316Z,100781.06
2022-12-23T08:42:12.725Z,100782.34
2022-12-23T08:44:55.935Z,100773.59
2022-12-23T08:47:28.546Z,100776.56
2022-12-23T08:50:17.568Z,100772.94
2022-12-23T08:52:59.463Z,100765.53
2022-12-23T08:55:47.237Z,100750.03
2022-12-23T08:58:21.537Z,100779.91
2022-12-23T09:00:51.217Z,100807.50
2022-12-23T09:03:49.424Z,100764.97
2022-12-23T09:09:34.628Z,100763.63
2022-12-23T09:12:03.638Z,100769.38
2022-12-23T09:14:33.164Z,100749.03
2022-12-23T09:17:00.883Z,100755.75
2022-12-23T09:19:28.538Z,100746.06
2022-12-23T09:21:56.884Z,100755.72
2022-12-23T09:24:38.815Z,100736.06
2022-12-23T09:27:06.263Z,100737.31
2022-12-23T09:29:34.413Z,100742.22
2022-12-23T09:32:02.078Z,100731.81
2022-12-23T09:34:29.716Z,100737.34
2022-12-23T09:36:57.433Z,100733.47
2022-12-23T09:39:25.771Z,100743.69
2022-12-23T09:42:02.193Z,100736.25
2022-12-23T09:44:48.739Z,100744.75
2022-12-23T09:47:17.454Z,100722.09
2022-12-23T09:49:46.878Z,100713.63
2022-12-23T09:52:15.432Z,100715.75
2022-12-23T09:54:46.172Z,100712.78
2022-12-23T09:57:25.985Z,100724.69
2022-12-23T09:59:59.660Z,100709.66
2022-12-23T10:02:30.410Z,100720.84
2022-12-23T10:05:16.925Z,100717.53
2022-12-23T10:07:45.587Z,100698.56
2022-12-23T10:10:28.221Z,100707.25
2022-12-23T10:12:55.676Z,100701.97
2022-12-23T10:15:23.490Z,100707.28
2022-12-23T10:17:52.578Z,100708.31
2022-12-23T10:20:22.269Z,100703.88
2022-12-23T10:22:50.111Z,100705.50
2022-12-23T10:25:23.163Z,100696.41
2022-12-23T10:27:50.791Z,100703.59
2022-12-23T10:30:51.625Z,100699.75
2022-12-23T10:33:13.027Z,100704.19
2022-12-23T10:35:46.778Z,100700.56
2022-12-23T10:38:14.192Z,100682.13
2022-12-23T10:41:06.974Z,100681.25
2022-12-23T10:43:38.686Z,100710.69
2022-12-23T10:46:17.732Z,100710.28
2022-12-23T10:48:51.296Z,100703.47
2022-12-23T10:51:20.348Z,100701.81
2022-12-23T10:53:51.061Z,100692.50
2022-12-23T10:56:18.598Z,100686.97
2022-12-23T10:58:46.638Z,100682.75
2022-12-23T11:01:18.927Z,100678.13
2022-12-23T11:04:00.581Z,100688.44
2022-12-23T11:06:34.832Z,100697.59
2022-12-23T11:09:04.533Z,100683.41
2022-12-23T11:11:50.787Z,100694.56
2022-12-23T11:14:33.608Z,100698.19
2022-12-23T11:17:01.410Z,100699.25
2022-12-23T11:19:29.000Z,100675.59
2022-12-23T11:21:57.199Z,100683.41
2022-12-23T11:24:25.193Z,100667.69
2022-12-23T11:27:03.071Z,100671.31
2022-12-23T11:29:32.120Z,100689.13
2022-12-23T11:32:00.072Z,100683.19
2022-12-23T11:34:27.586Z,100676.81
2022-12-23T11:37:00.158Z,100664.75
2022-12-23T11:39:35.269Z,100670.97
2022-12-23T11:42:04.507Z,100679.19
2022-12-23T11:44:33.323Z,100671.69
2022-12-23T11:47:21.243Z,100660.69
2022-12-23T11:49:52.270Z,100664.63
2022-12-23T11:52:21.304Z,100676.84
2022-12-23T11:54:54.796Z,100665.91
2022-12-23T11:57:24.418Z,100660.38
2022-12-23T11:59:55.441Z,100666.59
2022-12-23T12:02:28.095Z,100676.78
2022-12-23T12:05:03.865Z,100691.13
2022-12-23T12:07:56.736Z,100668.22
2022-12-23T12:10:31.769Z,100671.44
2022-12-23T12:13:03.118Z,100676.53
2022-12-23T12:15:33.720Z,100673.38
2022-12-23T12:18:02.036Z,100695.00
2022-12-23T12:20:31.901Z,100667.91
2022-12-23T12:23:02.227Z,100687.53
2022-12-23T12:25:37.940Z,100684.81
2022-12-23T12:28:27.397Z,100671.94
2022-12-23T12:30:59.412Z,100675.72
2022-12-23T12:33:40.731Z,100680.56
2022-12-23T12:36:12.340Z,100675.50
2022-12-23T12:39:07.017Z,100669.09
2022-12-23T12:41:37.851Z,100693.66
2022-12-23T12:44:26.839Z,100682.47
2022-12-23T12:46:55.445Z,100676.56
2022-12-23T12:49:25.240Z,100690.75
2022-12-23T12:51:52.714Z,100677.81
2022-12-23T12:54:48.371Z,100675.91
2022-12-23T12:57:16.630Z,100667.28
2022-12-23T12:59:48.248Z,100674.84
2022-12-23T13:02:20.919Z,100673.59
2022-12-23T13:04:57.627Z,100671.56
2022-12-23T13:07:29.982Z,100665.00
2022-12-23T13:10:15.239Z,100677.47
2022-12-23T13:12:52.095Z,100687.81
2022-12-23T13:15:37.737Z,100680.22
2022-12-23T13:18:15.263Z,100669.63
2022-12-23T13:20:59.891Z,100666.25
2022-12-23T13:23:47.705Z,100667.50
2022-12-23T13:26:26.060Z,100668.91
2022-12-23T13:29:00.645Z,100662.56
2022-12-23T13:31:33.737Z,100674.91
2022-12-23T13:34:16.512Z,100661.31
2022-12-23T13:36:46.878Z,100664.91
2022-12-23T13:39:35.712Z,100662.19
2022-12-23T13:42:06.090Z,100657.97
2022-12-23T13:44:40.109Z,100648.41
2022-12-23T13:47:21.312Z,100661.38
2022-12-23T13:50:07.857Z,100653.28
2022-12-23T13:52:55.920Z,100639.59
2022-12-23T13:55:42.214Z,100651.00
2022-12-23T14:01:34.529Z,100648.28
2022-12-23T14:04:25.027Z,100658.84
2022-12-23T14:06:53.189Z,100654.41
2022-12-23T14:09:21.060Z,100652.03
2022-12-23T14:12:00.993Z,100648.91
2022-12-23T14:14:55.932Z,100660.09
2022-12-23T14:17:27.167Z,100666.88
2022-12-23T14:20:00.851Z,100660.34
2022-12-23T14:23:09.528Z,100669.19
2022-12-23T14:25:37.870Z,100658.84
2022-12-23T14:28:52.665Z,100667.34
2022-12-23T14:31:47.036Z,100664.19
2022-12-23T14:34:25.492Z,100659.75
2022-12-23T14:37:48.153Z,100664.78
2022-12-23T14:40:34.393Z,100667.59
2022-12-23T14:43:46.273Z,100661.44
2022-12-23T14:46:31.361Z,100659.13
2022-12-23T14:49:22.398Z,100661.50
2022-12-23T14:51:53.812Z,100656.13
2022-12-23T14:55:00.174Z,100647.00
2022-12-23T14:57:30.833Z,100651.88
2022-12-23T15:00:34.690Z,100643.88
2022-12-23T15:03:57.607Z,100646.84
2022-12-23T15:12:16.168Z,100653.13
2022-12-23T15:14:42.812Z,100653.00
2022-12-23T15:17:26.035Z,100665.47
2022-12-23T15:19:53.963Z,100660.81
2022-12-23T15:22:32.249Z,100641.97
2022-12-23T15:25:28.153Z,100661.69
2022-12-23T15:31:17.140Z,100659.78
2022-12-23T15:34:17.651Z,100652.53
2022-12-23T15:41:30.110Z,100637.78
2022-12-23T15:46:54.803Z,100661.69
2022-12-23T15:49:22.197Z,100643.25
2022-12-23T15:53:07.236Z,100649.19
2022-12-23T15:55:35.616Z,100648.13
2022-12-23T15:58:03.678Z,100643.41
2022-12-23T16:00:39.427Z,100649.41
2022-12-23T16:03:13.613Z,100647.66
2022-12-23T16:05:45.026Z,100640.72
2022-12-23T16:08:16.416Z,100647.06
2022-12-23T16:10:55.213Z,100665.09
2022-12-23T16:13:51.531Z,100642.63
2022-12-23T16:16:33.667Z,100647.06
2022-12-23T16:19:01.461Z,100644.28
2022-12-23T16:21:38.042Z,100649.22
2022-12-23T16:24:08.694Z,100653.22
2022-12-23T16:26:40.300Z,100651.41
2022-12-23T16:29:09.705Z,100633.78
2022-12-23T16:31:41.617Z,100643.75
2022-12-23T16:34:12.099Z,100650.81
2022-12-23T16:36:39.820Z,100641.84
2022-12-23T16:39:07.834Z,100634.41
2022-12-23T16:41:35.417Z,100625.38
2022-12-23T16:44:08.346Z,100636.19
2022-12-23T16:46:40.234Z,100650.97
2022-12-23T16:49:11.078Z,100639.72
2022-12-23T16:51:38.754Z,100640.59
2022-12-23T16:54:06.290Z,100648.88
2022-12-23T16:56:35.272Z,100652.00
2022-12-23T16:59:02.729Z,100638.09
2022-12-23T17:01:34.257Z,100635.94
2022-12-23T17:04:01.991Z,100628.94
2022-12-23T17:06:32.491Z,100637.31
2022-12-23T17:09:00.044Z,100630.53
2022-12-23T17:11:38.068Z,100636.31
2022-12-23T17:14:11.847Z,100631.03
2022-12-23T17:16:43.524Z,100633.13
2022-12-23T17:19:11.606Z,100616.69
2022-12-23T17:21:39.281Z,100636.81
2022-12-23T17:24:11.439Z,100628.31
2022-12-23T17:26:38.857Z,100632.09
2022-12-23T17:29:06.728Z,100623.22
2022-12-23T17:31:34.471Z,100643.31
2022-12-23T17:34:02.280Z,100625.34
2022-12-23T17:36:33.003Z,100620.88
2022-12-23T17:39:00.553Z,100631.84
2022-12-23T17:41:28.806Z,100628.88
2022-12-23T17:43:56.992Z,100630.38
2022-12-23T17:46:28.466Z,100627.00
2022-12-23T17:48:58.564Z,100625.34
2022-12-23T17:51:26.333Z,100615.81
2022-12-23T17:54:14.031Z,100624.88
2022-12-23T17:56:41.455Z,100621.50
2022-12-23T17:59:09.435Z,100609.72
2022-12-23T18:01:36.952Z,100626.41
2022-12-23T18:04:05.375Z,100611.78
2022-12-23T18:06:33.592Z,100621.34
2022-12-23T18:09:01.025Z,100620.50
2022-12-23T18:11:36.317Z,100618.78
2022-12-23T18:14:04.930Z,100624.91
2022-12-23T18:16:32.505Z,100628.34
2022-12-23T18:18:59.970Z,100621.94
2022-12-23T18:21:29.655Z,100624.03
2022-12-23T18:23:57.904Z,100639.44
2022-12-23T18:26:26.390Z,100629.09
2022-12-23T18:28:54.614Z,100634.41
2022-12-23T18:31:24.379Z,100629.56
2022-12-23T18:33:52.959Z,100631.22
2022-12-23T18:36:31.461Z,100636.94
2022-12-23T18:38:59.521Z,100634.56
2022-12-23T18:41:27.008Z,100624.72
2022-12-23T18:43:55.310Z,100641.38
2022-12-23T18:46:22.983Z,100622.19
2022-12-23T18:48:51.776Z,100629.78
2022-12-23T18:51:19.920Z,100635.25
2022-12-23T18:53:49.756Z,100640.72
2022-12-23T18:56:17.642Z,100635.47
2022-12-23T18:58:45.443Z,100639.44
2022-12-23T19:01:14.077Z,100643.09
2022-12-23T19:03:42.569Z,100632.31
2022-12-23T19:06:13.975Z,100633.78
2022-12-23T22:15:11.636Z,100597.47
2022-12-23T22:17:39.419Z,100597.28
2022-12-23T22:20:07.309Z,100593.28
2022-12-23T22:22:35.054Z,100596.06
2022-12-23T22:25:02.412Z,100593.72
2022-12-23T22:27:30.021Z,100597.09
2022-12-23T22:29:57.494Z,100593.28
2022-12-23T22:32:25.010Z,100588.41
2022-12-23T22:34:52.452Z,100587.53
2022-12-23T22:37:19.980Z,100585.25
2022-12-23T22:39:47.493Z,100591.41
2022-12-23T22:42:14.863Z,100583.81
2022-12-23T22:44:42.353Z,100575.31
2022-12-23T22:47:09.999Z,100580.97
2022-12-23T22:49:37.784Z,100585.03
2022-12-23T22:52:05.230Z,100579.75
2022-12-23T22:54:32.689Z,100571.75
2022-12-23T22:57:00.119Z,100575.31
2022-12-23T22:59:28.121Z,100569.56
2022-12-23T23:01:55.729Z,100571.88
2022-12-23T23:04:23.272Z,100573.16
2022-12-23T23:06:50.734Z,100575.13
2022-12-23T23:09:18.797Z,100582.56
2022-12-23T23:11:46.232Z,100584.41
2022-12-23T23:14:13.644Z,100574.66
2022-12-23T23:16:41.315Z,100580.56
2022-12-23T23:19:09.883Z,100570.84
2022-12-23T23:21:37.981Z,100570.41
2022-12-23T23:24:05.597Z,100564.09
2022-12-23T23:26:34.160Z,100572.78
2022-12-23T23:29:01.683Z,100574.72
2022-12-23T23:31:41.849Z,100581.03
2022-12-23T23:34:11.195Z,100563.91
2022-12-23T23:36:38.646Z,100587.63
2022-12-23T23:39:06.790Z,100577.94
2022-12-23T23:41:36.000Z,100583.44
2022-12-23T23:44:04.979Z,100576.91
2022-12-23T23:46:32.600Z,100571.31
2022-12-23T23:49:00.123Z,100559.47
2022-12-23T23:51:29.335Z,100563.06
2022-12-23T23:53:56.762Z,100555.03
2022-12-23T23:56:26.262Z,100547.25
2022-12-23T23:58:55.087Z,100551.00
